Time;durP1;ratioP1;P1;durP2;ratioP2;P2;SDS_P1;SDS_P2;PMS_P1;PMS_P2;Temp;Humidity;BMP_temperature;BMP_pressure;BME280_temperature;BME280_humidity;BME280_pressure;Samples;Min_cycle;Max_cycle;Signal;HPM_P1;HPM_P2
2021/11/06 00:01:55;;;;;;;5.07;2.80;;;;;;;9.78;59.10;102147.13;4971311;28;20043;-61
2021/11/06 00:04:22;;;;;;;3.85;2.55;;;;;;;9.77;59.03;102147.16;4973051;28;20514;-62
2021/11/06 00:06:49;;;;;;;5.05;2.72;;;;;;;9.79;58.95;102148.00;4971840;28;20050;-62
2021/11/06 00:09:15;;;;;;;5.30;2.75;;;;;;;9.80;59.03;102147.94;4973140;28;20098;-62
2021/11/06 00:11:42;;;;;;;3.83;2.42;;;;;;;9.78;59.19;102143.66;4973118;28;20534;-62
2021/11/06 00:14:09;;;;;;;3.63;2.00;;;;;;;9.77;59.25;102148.00;4972798;28;20043;-65
2021/11/06 00:16:35;;;;;;;3.25;1.90;;;;;;;9.76;59.36;102142.81;4972923;28;20452;-62
2021/11/06 00:19:03;;;;;;;3.35;2.10;;;;;;;9.74;59.52;102147.28;4971971;28;20063;-62
2021/11/06 00:21:29;;;;;;;5.65;2.10;;;;;;;9.75;59.57;102138.47;4973185;28;20050;-65
2021/11/06 00:23:56;;;;;;;3.65;2.15;;;;;;;9.75;59.66;102141.09;4975501;28;20047;-62
2021/11/06 00:26:22;;;;;;;3.33;1.80;;;;;;;9.74;59.82;102144.66;4976838;28;20058;-61
2021/11/06 00:28:49;;;;;;;4.30;1.98;;;;;;;9.74;59.90;102142.88;4976376;28;20057;-62
2021/11/06 00:31:16;;;;;;;3.22;1.75;;;;;;;9.76;59.87;102148.06;4976168;28;20047;-61
2021/11/06 00:33:43;;;;;;;4.18;2.00;;;;;;;9.76;59.91;102148.06;4976160;28;20384;-62
2021/11/06 00:36:09;;;;;;;3.55;1.80;;;;;;;9.75;59.78;102148.97;4976206;28;20406;-62
2021/11/06 00:38:36;;;;;;;4.53;1.75;;;;;;;9.75;60.02;102146.34;4976056;28;20066;-61
2021/11/06 00:41:03;;;;;;;4.30;2.20;;;;;;;9.74;59.92;102148.13;4975090;28;20598;-62
2021/11/06 00:43:29;;;;;;;3.30;2.10;;;;;;;9.72;59.96;102146.44;4976367;28;20039;-62
2021/11/06 00:45:56;;;;;;;2.53;1.65;;;;;;;9.68;60.04;102158.78;4976100;28;20106;-61
2021/11/06 00:48:23;;;;;;;5.22;1.90;;;;;;;9.66;59.88;102155.34;4976111;28;20062;-63
2021/11/06 00:50:49;;;;;;;3.28;1.75;;;;;;;9.63;59.75;102156.28;4976015;28;20058;-62
2021/11/06 00:53:16;;;;;;;7.40;1.88;;;;;;;9.62;59.74;102158.97;4975880;28;20038;-61
2021/11/06 00:55:43;;;;;;;3.65;1.50;;;;;;;9.59;59.69;102164.31;4976056;28;20059;-62
2021/11/06 00:58:09;;;;;;;2.33;1.55;;;;;;;9.56;59.79;102156.53;4974760;28;20050;-61
2021/11/06 01:00:36;;;;;;;2.83;1.60;;;;;;;9.54;59.67;102156.56;4976125;28;20054;-61
2021/11/06 01:03:03;;;;;;;2.78;1.55;;;;;;;9.53;59.47;102162.72;4975798;28;20058;-62
2021/11/06 01:05:30;;;;;;;3.17;1.45;;;;;;;9.54;59.36;102164.44;4975664;28;20062;-61
2021/11/06 01:07:56;;;;;;;3.35;1.50;;;;;;;9.53;59.34;102172.34;4975701;28;20086;-62
2021/11/06 01:10:23;;;;;;;2.47;1.65;;;;;;;9.47;59.44;102176.88;4975733;28;20043;-62
2021/11/06 01:12:50;;;;;;;1.90;1.25;;;;;;;9.47;59.54;102169.00;4975654;28;20051;-63
2021/11/06 01:15:17;;;;;;;2.42;1.60;;;;;;;9.46;59.43;102164.66;4974398;28;20252;-61
2021/11/06 01:17:45;;;;;;;1.90;1.25;;;;;;;9.45;59.33;102175.19;4975582;28;20043;-62
2021/11/06 01:20:12;;;;;;;3.92;1.58;;;;;;;9.42;59.33;102168.28;4975952;28;20051;-62
2021/11/06 01:22:39;;;;;;;3.22;1.40;;;;;;;9.41;59.40;102168.34;4975373;28;20510;-63
2021/11/06 01:25:07;;;;;;;2.50;2.10;;;;;;;9.41;59.41;102165.72;4975332;28;20101;-61
2021/11/06 01:27:35;;;;;;;3.08;1.48;;;;;;;9.40;59.53;102170.06;4975429;28;20407;-62
2021/11/06 01:30:03;;;;;;;2.45;1.50;;;;;;;9.39;59.51;102173.59;4974270;28;20078;-63
2021/11/06 01:32:30;;;;;;;7.03;1.52;;;;;;;9.35;59.55;102168.50;4969674;28;20046;-62
2021/11/06 01:34:56;;;;;;;2.88;1.50;;;;;;;9.34;59.50;102174.66;4974689;28;20050;-62
2021/11/06 01:37:23;;;;;;;1.80;1.50;;;;;;;9.32;59.41;102166.84;4975203;28;20055;-62
2021/11/06 01:39:50;;;;;;;3.33;1.60;;;;;;;9.29;59.40;102177.38;4975166;28;20098;-62
2021/11/06 01:42:16;;;;;;;2.70;1.50;;;;;;;9.28;59.32;102180.91;4975252;28;20054;-61
2021/11/06 01:44:43;;;;;;;2.47;1.60;;;;;;;9.24;59.32;102177.53;4974952;28;20511;-62
2021/11/06 01:47:10;;;;;;;3.10;1.75;;;;;;;9.21;59.08;102171.50;4973975;28;20495;-62
2021/11/06 01:49:38;;;;;;;2.78;1.50;;;;;;;9.19;59.00;102173.31;4974861;28;20055;-61
2021/11/06 01:52:06;;;;;;;2.60;1.45;;;;;;;9.18;58.96;102168.97;4974735;28;20073;-64
2021/11/06 01:54:32;;;;;;;2.53;1.40;;;;;;;9.16;59.08;102176.88;4974944;28;20105;-61
2021/11/06 01:57:00;;;;;;;3.17;1.90;;;;;;;9.15;58.98;102169.91;4974866;28;20042;-61
2021/11/06 01:59:28;;;;;;;2.80;1.63;;;;;;;9.12;59.01;102172.63;4974883;28;20514;-62
2021/11/06 02:01:56;;;;;;;2.53;1.70;;;;;;;9.12;59.01;102177.88;4974639;28;20165;-62
2021/11/06 02:04:23;;;;;;;4.15;1.48;;;;;;;9.08;58.95;102176.25;4973726;28;20043;-63
2021/11/06 02:06:49;;;;;;;3.97;1.58;;;;;;;9.04;59.01;102179.81;4974642;28;20047;-62
2021/11/06 02:09:16;;;;;;;2.38;1.60;;;;;;;9.02;58.99;102177.25;4974738;28;20047;-61
2021/11/06 02:11:43;;;;;;;3.08;1.90;;;;;;;9.01;59.05;102175.53;4974435;28;20059;-61
2021/11/06 02:14:10;;;;;;;2.83;1.70;;;;;;;9.01;59.10;102182.53;4974636;28;20515;-62
2021/11/06 02:16:38;;;;;;;2.83;1.92;;;;;;;8.98;59.19;102186.94;4974515;28;20050;-62
2021/11/06 02:19:05;;;;;;;2.28;1.48;;;;;;;8.99;59.06;102183.44;4974115;28;20125;-62
2021/11/06 02:21:36;;;;;;;3.58;2.00;;;;;;;8.99;59.05;102182.56;4974463;28;20043;-62
2021/11/06 02:24:04;;;;;;;2.58;1.52;;;;;;;9.03;59.05;102186.81;4974081;28;20046;-62
2021/11/06 02:26:31;;;;;;;3.33;1.85;;;;;;;9.05;59.35;102179.75;4974400;28;20047;-61
2021/11/06 02:29:09;;;;;;;2.67;1.65;;;;;;;9.10;59.17;102180.53;4974258;28;20050;-62
2021/11/06 02:31:36;;;;;;;3.47;1.50;;;;;;;9.09;59.09;102178.81;4974143;28;20054;-61
2021/11/06 02:34:02;;;;;;;2.78;1.35;;;;;;;9.11;59.18;102174.38;4974076;28;20085;-62
2021/11/06 02:36:30;;;;;;;3.47;1.80;;;;;;;9.15;58.99;102167.28;4974006;28;20047;-62
2021/11/06 02:38:57;;;;;;;1.52;1.02;;;;;;;9.15;59.13;102178.66;4974090;28;20059;-62
2021/11/06 02:41:23;;;;;;;2.15;1.27;;;;;;;9.17;59.17;102177.72;4972986;28;20109;-62
2021/11/06 02:43:55;;;;;;;3.83;1.52;;;;;;;9.18;59.10;102182.06;4974110;28;20046;-61
2021/11/06 02:46:22;;;;;;;2.03;1.50;;;;;;;9.15;59.11;102181.25;4973052;28;20496;-62
2021/11/06 02:48:48;;;;;;;2.42;1.20;;;;;;;9.17;59.13;102189.06;4974133;28;20381;-61
2021/11/06 02:51:15;;;;;;;1.88;1.30;;;;;;;9.15;59.18;102181.25;4973843;28;20526;-61
2021/11/06 02:53:42;;;;;;;3.05;1.20;;;;;;;9.18;59.16;102187.28;4973844;28;20047;-62
2021/11/06 02:56:09;;;;;;;2.85;1.20;;;;;;;9.15;59.38;102188.25;4973874;28;20046;-62
2021/11/06 02:58:36;;;;;;;2.55;1.20;;;;;;;9.15;59.36;102183.00;4972518;28;20078;-63
2021/11/06 03:01:03;;;;;;;2.60;1.35;;;;;;;9.14;59.36;102184.78;4973763;28;20085;-61
2021/11/06 03:03:29;;;;;;;2.05;1.60;;;;;;;9.13;59.46;102185.66;4973892;28;20443;-62
2021/11/06 03:05:56;;;;;;;1.52;1.30;;;;;;;9.10;59.46;102185.78;4973824;28;20046;-61
2021/11/06 03:08:23;;;;;;;2.55;1.58;;;;;;;9.08;59.74;102194.56;4973592;28;20055;-62
2021/11/06 03:10:49;;;;;;;1.80;1.15;;;;;;;9.08;59.54;102205.03;4973612;28;20102;-62
2021/11/06 03:13:16;;;;;;;5.03;1.30;;;;;;;9.07;59.64;102209.41;4972811;28;20051;-62
2021/11/06 03:15:43;;;;;;;3.95;1.08;;;;;;;9.09;59.62;102206.72;4973057;28;20459;-62
2021/11/06 03:18:09;;;;;;;1.33;0.93;;;;;;;9.10;59.30;102208.47;4973431;28;20046;-62
2021/11/06 03:20:36;;;;;;;2.45;1.15;;;;;;;9.10;59.09;102217.19;4973529;28;20051;-62
2021/11/06 03:23:03;;;;;;;4.03;1.10;;;;;;;9.07;59.17;102213.78;4973532;28;20585;-61
2021/11/06 03:25:30;;;;;;;2.05;1.23;;;;;;;9.01;59.33;102227.03;4973614;28;20047;-62
2021/11/06 03:27:57;;;;;;;2.13;1.05;;;;;;;8.98;59.45;102228.81;4973286;28;20566;-62
2021/11/06 03:30:24;;;;;;;2.72;1.10;;;;;;;8.98;59.60;102228.81;4972141;28;20059;-62
2021/11/06 03:32:50;;;;;;;4.63;2.30;;;;;;;8.94;59.71;102226.34;4973239;28;20566;-62
2021/11/06 03:35:17;;;;;;;2.60;1.33;;;;;;;8.91;59.92;102232.53;4973192;28;20043;-64
2021/11/06 03:37:44;;;;;;;1.55;1.35;;;;;;;8.87;60.05;102230.84;4973269;28;20141;-62
2021/11/06 03:40:12;;;;;;;3.72;1.38;;;;;;;8.84;59.96;102238.81;4973416;28;20053;-62
2021/11/06 03:42:40;;;;;;;3.60;1.58;;;;;;;8.81;60.20;102231.00;4973325;28;20051;-62
2021/11/06 03:45:08;;;;;;;2.78;1.60;;;;;;;8.77;60.08;102239.84;4973056;28;20539;-61
2021/11/06 03:47:35;;;;;;;1.15;1.00;;;;;;;8.74;60.38;102234.69;4972140;28;20050;-61
2021/11/06 03:50:09;;;;;;;1.80;1.10;;;;;;;8.76;60.16;102235.50;4973103;28;20165;-61
2021/11/06 03:52:36;;;;;;;3.53;1.10;;;;;;;8.72;60.34;102247.81;4973326;28;20051;-62
2021/11/06 03:55:06;;;;;;;2.03;0.88;;;;;;;8.71;60.17;102240.88;4973042;28;20046;-62
2021/11/06 03:57:33;;;;;;;2.95;1.30;;;;;;;8.68;60.25;102248.78;4975398;28;20043;-61
2021/11/06 04:00:00;;;;;;;1.13;1.02;;;;;;;8.65;60.18;102251.50;4976764;28;20058;-64
2021/11/06 04:02:27;;;;;;;2.97;1.20;;;;;;;8.64;60.00;102244.53;4975536;28;20585;-64
2021/11/06 04:04:53;;;;;;;2.50;1.23;;;;;;;8.63;60.09;102251.53;4972116;28;20062;-63
2021/11/06 04:07:20;;;;;;;2.72;1.45;;;;;;;8.61;59.91;102250.69;4973879;28;20071;-62
2021/11/06 04:09:46;;;;;;;2.03;1.02;;;;;;;8.62;59.82;102252.41;4973504;28;20057;-62
2021/11/06 04:12:13;;;;;;;1.65;0.90;;;;;;;8.59;59.88;102257.72;4973246;28;20043;-62
2021/11/06 04:14:40;;;;;;;4.47;1.10;;;;;;;8.60;59.81;102262.06;4973364;28;20057;-61
2021/11/06 04:17:06;;;;;;;1.73;1.00;;;;;;;8.59;60.02;102262.94;4972138;28;20065;-61
2021/11/06 04:19:33;;;;;;;1.30;1.02;;;;;;;8.60;60.00;102261.22;4972309;28;20061;-62
2021/11/06 04:22:00;;;;;;;2.42;1.02;;;;;;;8.61;60.04;102252.47;4973231;28;20094;-61
2021/11/06 04:24:27;;;;;;;4.18;1.55;;;;;;;8.64;60.05;102261.06;4973223;28;20047;-61
2021/11/06 04:26:54;;;;;;;2.17;1.30;;;;;;;8.61;59.95;102260.31;4973740;28;20077;-64
2021/11/06 04:29:21;;;;;;;2.47;1.08;;;;;;;8.59;60.03;102259.47;4973191;28;20130;-62
2021/11/06 04:31:48;;;;;;;2.85;1.10;;;;;;;8.58;60.06;102260.38;4973260;28;20057;-61
2021/11/06 04:34:15;;;;;;;1.35;1.00;;;;;;;8.57;60.11;102259.53;4973415;28;20499;-61
2021/11/06 04:36:42;;;;;;;1.92;1.25;;;;;;;8.59;59.86;102269.94;4972169;28;20063;-62
2021/11/06 04:39:09;;;;;;;4.00;1.17;;;;;;;8.59;59.86;102268.19;4973069;28;20207;-62
2021/11/06 04:41:35;;;;;;;2.42;1.10;;;;;;;8.60;59.75;102271.69;4959200;28;20098;-62
2021/11/06 04:44:03;;;;;;;1.50;0.95;;;;;;;8.63;59.65;102280.31;4973074;28;20117;-62
2021/11/06 04:46:29;;;;;;;1.90;1.30;;;;;;;8.63;59.66;102275.09;4972929;28;20047;-62
2021/11/06 04:48:56;;;;;;;1.40;1.00;;;;;;;8.64;59.70;102278.53;4972883;28;20053;-61
2021/11/06 04:51:24;;;;;;;1.77;1.00;;;;;;;8.65;59.79;102277.66;4972060;28;20055;-62
2021/11/06 04:53:50;;;;;;;2.30;1.20;;;;;;;8.65;59.75;102281.13;4972825;28;20047;-61
2021/11/06 04:56:17;;;;;;;1.75;1.10;;;;;;;8.64;59.76;102282.00;4972810;28;20050;-62
2021/11/06 04:58:44;;;;;;;2.70;1.10;;;;;;;8.69;59.85;102283.69;4958890;28;20050;-61
2021/11/06 05:01:10;;;;;;;3.05;1.10;;;;;;;8.72;59.61;102288.81;4972786;28;20477;-62
2021/11/06 05:03:37;;;;;;;2.40;1.02;;;;;;;8.72;59.75;102288.81;4972454;28;20086;-61
2021/11/06 05:06:04;;;;;;;1.75;1.10;;;;;;;8.74;59.67;102290.50;4972408;28;20051;-62
2021/11/06 05:08:31;;;;;;;1.83;0.90;;;;;;;8.79;59.71;102288.66;4970400;28;20051;-64
2021/11/06 05:10:57;;;;;;;1.30;0.75;;;;;;;8.76;59.46;102283.50;4972415;28;20049;-62
2021/11/06 05:13:24;;;;;;;2.35;0.80;;;;;;;8.83;59.13;102286.81;4972303;28;20128;-62
2021/11/06 05:15:51;;;;;;;1.85;0.65;;;;;;;8.83;59.02;102282.44;4972088;28;20487;-62
2021/11/06 05:18:19;;;;;;;2.60;0.70;;;;;;;8.85;58.73;102290.28;4972264;28;20051;-62
2021/11/06 05:20:46;;;;;;;0.98;0.70;;;;;;;8.86;58.70;102284.09;4972057;28;20515;-63
2021/11/06 05:23:14;;;;;;;1.23;0.70;;;;;;;8.84;58.62;102283.31;4972544;28;20046;-62
2021/11/06 05:25:41;;;;;;;1.00;0.50;;;;;;;8.87;58.57;102288.44;4971449;28;20054;-61
2021/11/06 05:28:08;;;;;;;2.35;0.80;;;;;;;8.87;58.22;102293.69;4958826;28;20050;-64
2021/11/06 05:30:34;;;;;;;1.73;0.85;;;;;;;8.86;58.05;102294.56;4971946;28;20495;-61
2021/11/06 05:33:01;;;;;;;3.78;0.63;;;;;;;8.82;58.19;102285.97;4972281;28;20050;-61
2021/11/06 05:35:27;;;;;;;1.60;0.68;;;;;;;8.83;58.08;102292.06;4972158;28;20106;-62
2021/11/06 05:37:55;;;;;;;1.45;0.45;;;;;;;8.83;58.07;102292.06;4971849;28;20093;-64
2021/11/06 05:40:22;;;;;;;1.02;0.82;;;;;;;8.84;57.89;102296.41;4971184;28;20065;-64
2021/11/06 05:42:49;;;;;;;0.95;0.82;;;;;;;8.81;57.85;102292.09;4971784;28;20065;-62
2021/11/06 05:45:15;;;;;;;0.65;0.50;;;;;;;8.78;57.95;102291.31;4972058;28;20046;-59
2021/11/06 05:47:43;;;;;;;1.70;0.63;;;;;;;8.73;58.17;102298.41;4971701;28;20051;-62
2021/11/06 05:50:11;;;;;;;2.53;0.85;;;;;;;8.68;57.95;102300.28;4971831;28;20105;-61
2021/11/06 05:52:39;;;;;;;2.22;1.00;;;;;;;8.68;57.80;102306.34;4971684;28;20488;-62
2021/11/06 05:55:08;;;;;;;2.20;1.00;;;;;;;8.67;57.76;102309.88;4971546;28;20039;-62
2021/11/06 05:57:35;;;;;;;2.78;0.65;;;;;;;8.68;57.86;102313.34;4970444;28;20102;-62
2021/11/06 06:00:14;;;;;;;1.58;0.73;;;;;;;8.68;57.66;102315.97;4971368;28;20116;-63
2021/11/06 06:02:41;;;;;;;7.65;1.02;;;;;;;8.65;57.79;102314.28;4970974;28;20115;-61
2021/11/06 06:05:08;;;;;;;1.65;0.60;;;;;;;8.63;57.73;102313.47;4971368;28;20399;-61
2021/11/06 06:07:36;;;;;;;5.05;0.85;;;;;;;8.62;57.56;102317.84;4971339;28;20421;-61
2021/11/06 06:10:05;;;;;;;2.60;0.77;;;;;;;8.64;57.37;102317.78;4971568;28;20090;-61
2021/11/06 06:12:32;;;;;;;1.88;0.70;;;;;;;8.63;57.12;102319.56;4971180;28;20046;-63
2021/11/06 06:14:59;;;;;;;2.55;0.80;;;;;;;8.65;57.38;102322.16;4970977;28;20070;-61
2021/11/06 06:17:26;;;;;;;1.85;0.60;;;;;;;8.66;57.22;102326.50;4970862;28;20507;-61
2021/11/06 06:19:55;;;;;;;1.23;0.90;;;;;;;8.71;57.10;102329.84;4970758;28;20419;-62
2021/11/06 06:22:28;;;;;;;1.90;0.80;;;;;;;8.68;57.12;102329.06;4971182;28;20484;-61
2021/11/06 06:24:57;;;;;;;1.25;0.88;;;;;;;8.70;57.13;102332.47;4970704;28;20419;-61
2021/11/06 06:27:23;;;;;;;1.95;0.82;;;;;;;8.70;57.40;102338.59;4971184;28;20047;-61
2021/11/06 06:29:50;;;;;;;2.85;1.08;;;;;;;8.74;57.46;102340.25;4970303;28;20075;-64
2021/11/06 06:32:17;;;;;;;4.57;1.23;;;;;;;8.79;57.40;102351.47;4970644;28;20454;-62
2021/11/06 06:34:43;;;;;;;1.85;0.95;;;;;;;8.82;57.54;102343.56;4969597;28;20721;-62
2021/11/06 06:37:10;;;;;;;1.83;0.80;;;;;;;8.85;57.65;102350.47;4970791;28;20051;-61
2021/11/06 06:39:37;;;;;;;2.20;0.77;;;;;;;8.86;57.61;102354.78;4970690;28;20051;-62
2021/11/06 06:42:04;;;;;;;4.05;1.17;;;;;;;8.91;57.48;102354.69;4970560;28;20195;-62
2021/11/06 06:44:30;;;;;;;3.55;0.80;;;;;;;8.93;57.40;102355.53;4971065;28;20095;-61
2021/11/06 06:46:57;;;;;;;1.00;0.80;;;;;;;8.96;57.36;102358.06;4970889;28;20404;-61
2021/11/06 06:49:24;;;;;;;2.10;0.80;;;;;;;8.98;57.33;102362.34;4969844;28;20055;-62
2021/11/06 06:51:51;;;;;;;2.90;0.88;;;;;;;9.08;56.82;102372.63;4970407;28;20642;-63
2021/11/06 06:54:18;;;;;;;3.17;0.90;;;;;;;9.11;56.96;102373.41;4970788;28;20054;-61
2021/11/06 06:56:45;;;;;;;1.17;0.70;;;;;;;9.19;56.67;102367.97;4970543;28;20047;-62
2021/11/06 06:59:12;;;;;;;2.63;0.95;;;;;;;9.23;56.67;102371.38;4970379;28;20051;-62
2021/11/06 07:01:39;;;;;;;2.17;0.88;;;;;;;9.26;56.84;102382.66;4970333;28;20050;-62
2021/11/06 07:04:06;;;;;;;3.92;0.98;;;;;;;9.35;56.59;102381.56;4970501;28;20410;-61
2021/11/06 07:06:32;;;;;;;3.70;1.30;;;;;;;9.52;56.04;102386.34;4957738;28;20051;-62
2021/11/06 07:09:00;;;;;;;5.53;1.00;;;;;;;9.73;55.69;102384.94;4970330;28;20054;-61
2021/11/06 07:11:27;;;;;;;5.40;1.73;;;;;;;9.85;55.57;102386.38;4955575;28;20415;-61
2021/11/06 07:13:54;;;;;;;1.65;0.93;;;;;;;9.82;55.89;102394.34;4956692;28;20093;-61
2021/11/06 07:16:21;;;;;;;2.05;1.02;;;;;;;9.78;56.07;102397.94;4970013;28;20050;-61
2021/11/06 07:18:48;;;;;;;5.28;1.10;;;;;;;9.75;56.13;102401.50;4970283;28;20042;-61
2021/11/06 07:21:14;;;;;;;1.90;1.20;;;;;;;9.75;56.17;102406.75;4969166;28;20062;-61
2021/11/06 07:23:41;;;;;;;4.07;1.17;;;;;;;9.73;56.48;102405.06;4970299;28;20050;-61
2021/11/06 07:26:09;;;;;;;2.90;1.00;;;;;;;9.73;56.45;102411.16;4970725;28;20043;-61
2021/11/06 07:28:36;;;;;;;2.83;0.95;;;;;;;9.76;56.46;102407.59;4960060;28;20058;-61
2021/11/06 07:31:03;;;;;;;1.50;0.93;;;;;;;9.79;56.72;102420.66;4965691;28;20054;-61
2021/11/06 07:33:30;;;;;;;2.58;1.10;;;;;;;9.85;56.76;102423.06;4970051;28;20042;-61
2021/11/06 07:35:56;;;;;;;2.95;1.00;;;;;;;9.91;56.77;102424.69;4970104;28;20090;-60
2021/11/06 07:38:23;;;;;;;3.08;1.15;;;;;;;10.00;56.34;102421.81;4968724;28;20046;-62
2021/11/06 07:40:50;;;;;;;2.33;1.23;;;;;;;10.04;56.45;102428.69;4969861;28;20055;-63
2021/11/06 07:43:17;;;;;;;2.92;1.10;;;;;;;10.10;56.46;102419.81;4969763;28;20047;-64
2021/11/06 07:45:44;;;;;;;1.48;1.00;;;;;;;10.16;56.36;102417.00;4970121;28;20051;-63
2021/11/06 07:48:10;;;;;;;2.90;1.10;;;;;;;10.22;56.47;102423.84;4970013;28;20504;-62
2021/11/06 07:50:37;;;;;;;4.45;1.48;;;;;;;10.30;56.13;102417.47;4969676;28;20124;-60
2021/11/06 07:53:04;;;;;;;1.98;1.20;;;;;;;10.36;55.96;102416.50;4969063;28;20053;-62
2021/11/06 07:55:30;;;;;;;3.97;1.38;;;;;;;10.61;55.53;102410.50;4969857;28;20046;-61
2021/11/06 07:57:57;;;;;;;3.45;1.25;;;;;;;11.30;53.59;102411.88;4969928;28;20058;-61
2021/11/06 08:00:24;;;;;;;3.55;1.40;;;;;;;11.73;52.31;102407.78;4953512;28;20051;-62
2021/11/06 08:02:50;;;;;;;4.03;1.50;;;;;;;11.96;51.60;102408.78;4961837;28;20463;-61
2021/11/06 08:05:18;;;;;;;2.55;1.50;;;;;;;12.30;50.72;102407.56;4969590;28;20051;-63
2021/11/06 08:07:45;;;;;;;3.83;2.10;;;;;;;12.64;49.91;102406.28;4963859;28;20134;-60
2021/11/06 08:10:12;;;;;;;4.07;1.45;;;;;;;12.54;50.42;102408.41;4951323;28;20047;-61
2021/11/06 08:12:41;;;;;;;2.92;1.90;;;;;;;12.90;49.72;102408.75;4952435;28;20511;-62
2021/11/06 08:15:13;;;;;;;2.13;1.35;;;;;;;13.21;48.95;102407.50;4951633;28;20047;-62
2021/11/06 08:17:40;;;;;;;3.40;1.88;;;;;;;13.43;48.58;102404.03;4950789;28;20055;-61
2021/11/06 08:20:09;;;;;;;5.88;2.42;;;;;;;13.65;48.16;102411.03;4950305;28;20043;-61
2021/11/06 08:22:36;;;;;;;4.90;2.38;;;;;;;13.87;47.96;102406.53;4952873;28;20047;-62
2021/11/06 08:25:05;;;;;;;6.72;1.77;;;;;;;14.04;47.39;102403.16;4952032;28;20043;-61
2021/11/06 08:27:34;;;;;;;6.95;2.08;;;;;;;14.20;47.15;102402.47;4952919;28;20043;-62
2021/11/06 08:30:01;;;;;;;2.92;1.58;;;;;;;14.43;46.56;102400.56;4956932;28;20685;-62
2021/11/06 08:32:28;;;;;;;4.38;2.05;;;;;;;14.63;46.05;102404.91;4950713;28;20543;-61
2021/11/06 08:34:54;;;;;;;3.47;1.80;;;;;;;14.74;45.56;102394.72;4956570;28;20074;-62
2021/11/06 08:37:21;;;;;;;5.38;1.90;;;;;;;14.88;45.30;102395.84;4969228;28;20055;-63
2021/11/06 08:39:47;;;;;;;4.03;1.45;;;;;;;15.04;44.67;102393.31;4969009;28;20043;-61
2021/11/06 08:42:14;;;;;;;5.63;1.40;;;;;;;15.21;43.83;102388.06;4968762;28;20404;-61
2021/11/06 08:44:41;;;;;;;4.28;1.50;;;;;;;14.94;44.52;102387.59;4971385;28;20050;-61
2021/11/06 08:47:07;;;;;;;3.80;1.27;;;;;;;14.74;44.98;102386.81;4972520;28;20148;-62
2021/11/06 08:49:34;;;;;;;4.70;1.20;;;;;;;15.04;44.10;102393.31;4972781;28;20081;-59
2021/11/06 08:52:02;;;;;;;3.85;1.35;;;;;;;15.39;43.15;102388.03;4972727;28;20043;-61
2021/11/06 08:54:29;;;;;;;2.15;1.30;;;;;;;15.65;42.43;102386.69;4966401;28;20039;-62
2021/11/06 08:56:57;;;;;;;2.17;1.50;;;;;;;15.85;42.61;102384.84;4972894;28;20047;-62
2021/11/06 08:59:24;;;;;;;3.25;1.88;;;;;;;15.81;42.78;102385.00;4971341;28;20043;-63
2021/11/06 09:01:54;;;;;;;2.70;1.80;;;;;;;15.71;43.02;102381.09;4972309;28;20050;-62
2021/11/06 09:04:23;;;;;;;2.88;1.92;;;;;;;15.83;43.11;102385.78;4972529;28;20042;-63
2021/11/06 09:06:49;;;;;;;4.18;2.00;;;;;;;16.21;42.39;102382.00;4972215;28;20082;-62
2021/11/06 09:09:16;;;;;;;5.40;1.75;;;;;;;16.46;42.08;102384.16;4962317;28;20061;-62
2021/11/06 09:11:46;;;;;;;5.25;2.20;;;;;;;16.19;42.75;102389.19;4971292;28;20055;-62
2021/11/06 09:14:14;;;;;;;7.03;2.67;;;;;;;16.11;43.66;102383.44;4966611;28;20575;-61
2021/11/06 09:16:41;;;;;;;5.18;2.78;;;;;;;16.56;42.42;102394.28;4972390;28;20419;-63
2021/11/06 09:19:08;;;;;;;2.65;1.70;;;;;;;16.81;41.71;102384.00;4972315;28;20053;-62
2021/11/06 09:21:35;;;;;;;3.20;1.27;;;;;;;17.18;40.88;102372.22;4972500;28;20051;-62
2021/11/06 09:24:03;;;;;;;4.45;1.30;;;;;;;17.53;39.36;102378.09;4972146;28;20054;-64
2021/11/06 09:26:44;;;;;;;3.42;1.00;;;;;;;17.77;38.20;102383.72;4972167;28;20038;-62
2021/11/06 09:29:13;;;;;;;3.58;0.90;;;;;;;17.86;37.95;102386.75;4970896;28;20043;-62
2021/11/06 09:31:41;;;;;;;3.70;1.10;;;;;;;18.08;37.22;102378.34;4971790;28;20047;-62
2021/11/06 09:34:09;;;;;;;1.95;1.50;;;;;;;18.26;36.64;102371.03;4970424;28;20058;-62
2021/11/06 09:36:37;;;;;;;2.67;1.05;;;;;;;18.46;36.47;102374.22;4958905;28;20058;-62
2021/11/06 09:39:06;;;;;;;1.55;1.00;;;;;;;18.59;35.87;102368.00;4971824;28;20101;-62
2021/11/06 09:41:33;;;;;;;3.53;1.10;;;;;;;18.78;35.26;102369.47;4971950;28;20136;-62
2021/11/06 09:44:00;;;;;;;2.53;0.90;;;;;;;18.95;34.94;102367.53;4971644;28;20051;-62
2021/11/06 09:46:27;;;;;;;2.75;1.05;;;;;;;19.07;34.59;102358.72;4970758;28;20832;-62
2021/11/06 09:48:54;;;;;;;2.63;0.95;;;;;;;19.21;34.20;102366.66;4971700;28;20385;-62
2021/11/06 09:51:21;;;;;;;1.60;0.85;;;;;;;19.35;33.73;102363.06;4971584;28;20050;-62
2021/11/06 09:53:51;;;;;;;1.27;0.80;;;;;;;19.47;33.62;102364.00;4953066;28;20056;-62
2021/11/06 09:56:24;;;;;;;2.20;1.10;;;;;;;19.60;33.11;102361.34;4954081;28;20070;-61
2021/11/06 09:59:00;;;;;;;2.90;0.95;;;;;;;19.67;32.86;102367.13;4953841;28;20451;-63
2021/11/06 10:01:31;;;;;;;2.08;0.80;;;;;;;19.72;32.69;102363.16;4956109;28;20503;-61
2021/11/06 10:04:07;;;;;;;4.63;1.92;;;;;;;19.85;32.63;102363.19;4953933;28;20043;-61
2021/11/06 10:06:36;;;;;;;3.25;2.22;;;;;;;19.96;31.91;102358.91;4953578;28;20412;-61
2021/11/06 10:09:08;;;;;;;5.53;3.38;;;;;;;19.92;31.51;102360.09;4970658;28;20051;-63
2021/11/06 10:11:35;;;;;;;7.55;5.05;;;;;;;19.98;31.29;102354.31;4965505;28;20101;-61
2021/11/06 10:14:08;;;;;;;8.75;6.38;;;;;;;20.03;31.76;102361.03;4971329;28;20101;-61
2021/11/06 10:16:46;;;;;;;10.27;6.68;;;;;;;20.10;31.49;102363.25;4971179;28;20554;-62
2021/11/06 10:19:43;;;;;;;6.07;4.10;;;;;;;20.23;31.59;102358.75;4970266;28;20078;-62
2021/11/06 10:22:25;;;;;;;3.53;2.33;;;;;;;20.34;30.99;102349.97;4967182;28;20062;-62
2021/11/06 10:24:59;;;;;;;5.68;2.83;;;;;;;20.45;30.86;102350.03;4966957;28;20046;-62
2021/11/06 10:27:30;;;;;;;5.68;4.22;;;;;;;20.52;30.69;102335.28;4958080;28;20086;-62
2021/11/06 10:30:12;;;;;;;3.42;2.70;;;;;;;20.55;30.50;102340.38;4958562;28;20054;-62
2021/11/06 10:32:41;;;;;;;13.23;11.93;;;;;;;20.62;30.16;102338.13;4970512;28;20046;-61
2021/11/06 10:35:19;;;;;;;2.60;1.75;;;;;;;20.68;29.81;102335.03;4969607;28;20529;-62
2021/11/06 10:37:48;;;;;;;1.95;0.80;;;;;;;20.70;30.17;102332.22;4970192;28;20091;-61
2021/11/06 10:40:19;;;;;;;1.08;0.65;;;;;;;20.68;29.65;102327.03;4970845;28;20050;-61
2021/11/06 10:42:56;;;;;;;0.68;0.55;;;;;;;20.73;29.54;102323.19;4970131;28;20058;-61
2021/11/06 10:45:27;;;;;;;3.28;0.88;;;;;;;20.68;29.47;102315.47;4958855;28;20389;-61
2021/11/06 10:47:59;;;;;;;1.17;0.40;;;;;;;20.65;29.88;102316.56;4968559;28;20495;-62
2021/11/06 10:50:45;;;;;;;1.15;0.50;;;;;;;20.65;29.76;102308.56;4970884;28;20520;-62
2021/11/06 10:53:16;;;;;;;1.20;0.80;;;;;;;20.62;29.67;102313.25;4970561;28;20106;-62
2021/11/06 10:55:44;;;;;;;1.25;0.90;;;;;;;20.61;29.62;102307.09;4970667;28;20047;-60
2021/11/06 10:58:24;;;;;;;1.00;0.70;;;;;;;20.61;29.38;102312.44;4970636;28;20109;-62
2021/11/06 11:00:57;;;;;;;1.63;0.68;;;;;;;20.59;29.42;102301.00;4970210;28;20101;-62
2021/11/06 11:03:28;;;;;;;2.90;2.05;;;;;;;20.58;29.22;102291.31;4970311;28;20054;-62
2021/11/06 11:05:58;;;;;;;2.60;1.40;;;;;;;20.61;28.97;102300.88;4961590;28;20047;-61
2021/11/06 11:08:26;;;;;;;2.03;1.58;;;;;;;20.59;29.30;102303.69;4952224;28;20122;-62
2021/11/06 11:11:04;;;;;;;2.33;1.20;;;;;;;20.59;28.92;102297.50;4957937;28;20066;-62
2021/11/06 11:13:31;;;;;;;1.42;0.90;;;;;;;20.60;28.94;102297.38;4954068;28;20047;-61
2021/11/06 11:16:11;;;;;;;3.65;2.38;;;;;;;20.63;28.88;102297.16;4956959;28;20062;-63
2021/11/06 11:18:39;;;;;;;1.77;1.20;;;;;;;20.63;29.05;102294.50;4961424;28;20054;-61
2021/11/06 11:21:10;;;;;;;2.53;1.50;;;;;;;20.64;28.75;102300.69;4957210;28;20066;-61
2021/11/06 11:23:39;;;;;;;1.83;1.00;;;;;;;20.63;28.62;102296.31;4956168;28;20554;-63
2021/11/06 11:26:06;;;;;;;1.98;1.35;;;;;;;20.67;28.47;102290.63;4964075;28;20046;-62
2021/11/06 11:28:33;;;;;;;17.02;10.48;;;;;;;20.74;28.28;102280.38;4957388;28;20106;-62
2021/11/06 11:31:00;;;;;;;6.97;3.50;;;;;;;20.77;28.75;102281.97;4964723;28;20105;-62
2021/11/06 11:33:40;;;;;;;2.10;1.10;;;;;;;20.85;28.47;102283.06;4962229;28;20043;-62
2021/11/06 11:36:10;;;;;;;4.32;2.30;;;;;;;20.88;28.39;102285.50;4951297;28;20047;-62